This is the latest recevied weather packets stored in our database for station/object LZ1HCO-25. If no packets are shown the sender has not sent any weather packets the latest 1 day(s).
| Time | Temp. | Humidity | Pressure | Rain* | Wind** | Luminosity | Snow |
|---|---|---|---|---|---|---|---|
| 1777982404 | 26.67° C | 40% | 968 hPa | - | 0 m/s | 0 W/m² | - |
| 1777982093 | 27.22° C | 39% | 968 hPa | - | 0 m/s | 0 W/m² | - |
| 1777981782 | 26.11° C | 36% | 968 hPa | - | 0 m/s | 0 W/m² | - |
| 1777981470 | 27.22° C | 41% | 968 hPa | - | 0 m/s | 0 W/m² | - |
| 1777981159 | 26.11° C | 38% | 968 hPa | - | 0 m/s | 0 W/m² | - |
| 1777980848 | 26.67° C | 41% | 968 hPa | - | 0 m/s | 0 W/m² | - |
| 1777980536 | 26.11° C | 37% | 968 hPa | - | 0 m/s | 0 W/m² | - |
| 1777980225 | 26.11° C | 39% | 968 hPa | - | 0 m/s | 0 W/m² | - |
| 1777979913 | 27.78° C | 39% | 968 hPa | - | 0 m/s | 0 W/m² | - |
| 1777979602 | 27.22° C | 39% | 968 hPa | - | 0 m/s | 0 W/m² | - |
| 1777979291 | 25.56° C | 36% | 968 hPa | - | 0 m/s | 0 W/m² | - |
| 1777978979 | 26.67° C | 39% | 968 hPa | - | 0 m/s | 0 W/m² | - |
| 1777978668 | 27.22° C | 39% | 968 hPa | - | 0 m/s | 0 W/m² | - |
| 1777978357 | 26.67° C | 39% | 968 hPa | - | 0 m/s | 0 W/m² | - |
| 1777978045 | 26.67° C | 41% | 968 hPa | - | 0 m/s | 0 W/m² | - |
| 1777977734 | 26.67° C | 37% | 968 hPa | - | 0 m/s | 0 W/m² | - |
| 1777977422 | 27.22° C | 36% | 968 hPa | - | 0 m/s | 0 W/m² | - |
| 1777977111 | 26.67° C | 38% | 968 hPa | - | 0 m/s | 0 W/m² | - |
| 1777976800 | 26.67° C | 36% | 968 hPa | - | 0 m/s | 0 W/m² | - |
| 1777976488 | 26.67° C | 36% | 969 hPa | - | 0 m/s | 0 W/m² | - |
| 1777976177 | 26.67° C | 35% | 969 hPa | - | 0 m/s | 0 W/m² | - |
| 1777975866 | 27.78° C | 39% | 969 hPa | - | 0 m/s | 0 W/m² | - |
| 1777975554 | 26.67° C | 39% | 969 hPa | - | 0 m/s | 0 W/m² | - |
| 1777975243 | 26.11° C | 38% | 969 hPa | - | 0 m/s | 0 W/m² | - |
| 1777974932 | 26.67° C | 36% | 969 hPa | - | 0 m/s | 0 W/m² | - |
* Rain since midnight (hover to see other rain measurements)
** Current wind speed in m/s (hover to see current wind gust speed)